createdAt,value
2022-11-28T00:01:51.741Z,63.11
2022-11-28T00:04:18.873Z,63.01
2022-11-28T00:06:49.522Z,62.07
2022-11-28T00:09:18.861Z,61.99
2022-11-28T00:11:48.628Z,62.67
2022-11-28T00:14:17.350Z,63.26
2022-11-28T00:16:44.375Z,62.71
2022-11-28T00:19:13.076Z,62.42
2022-11-28T00:21:41.806Z,62.14
2022-11-28T00:24:09.915Z,62.17
2022-11-28T00:26:42.130Z,62.49
2022-11-28T00:29:10.773Z,62.61
2022-11-28T00:31:43.207Z,62.69
2022-11-28T00:34:12.477Z,62.65
2022-11-28T00:36:39.531Z,62.47
2022-11-28T00:39:07.302Z,62.44
2022-11-28T00:41:35.545Z,61.97
2022-11-28T00:44:02.720Z,61.77
2022-11-28T00:46:30.121Z,61.74
2022-11-28T00:48:58.931Z,61.82
2022-11-28T00:51:28.587Z,61.90
2022-11-28T00:53:58.134Z,61.08
2022-11-28T00:56:28.213Z,61.32
2022-11-28T00:58:56.227Z,61.26
2022-11-28T01:01:27.549Z,61.16
2022-11-28T01:03:56.347Z,61.54
2022-11-28T01:06:26.648Z,62.24
2022-11-28T01:08:54.542Z,62.49
2022-11-28T01:11:22.218Z,62.99
2022-11-28T01:13:49.645Z,62.80
2022-11-28T01:16:16.852Z,63.29
2022-11-28T01:18:43.923Z,63.59
2022-11-28T01:21:11.462Z,63.61
2022-11-28T01:23:38.454Z,63.63
2022-11-28T01:26:07.808Z,63.69
2022-11-28T01:28:35.682Z,63.52
2022-11-28T01:31:07.744Z,63.36
2022-11-28T01:33:35.016Z,63.42
2022-11-28T01:36:02.197Z,63.48
2022-11-28T01:38:29.982Z,63.46
2022-11-28T01:40:57.383Z,63.72
2022-11-28T01:43:25.112Z,63.31
2022-11-28T01:45:52.773Z,62.94
2022-11-28T01:48:29.444Z,63.20
2022-11-28T01:51:00.914Z,62.97
2022-11-28T01:53:30.830Z,62.90
2022-11-28T01:56:09.171Z,63.24
2022-11-28T01:58:41.606Z,63.11
2022-11-28T02:01:09.546Z,62.71
2022-11-28T02:03:48.717Z,63.17
2022-11-28T02:06:20.405Z,62.73
2022-11-28T02:08:53.281Z,62.62
2022-11-28T02:11:40.303Z,62.86
2022-11-28T02:14:31.466Z,62.92
2022-11-28T02:17:22.100Z,62.24
2022-11-28T02:19:54.677Z,61.87
2022-11-28T02:22:30.506Z,62.27
2022-11-28T02:25:16.683Z,61.98
2022-11-28T02:28:01.557Z,62.49
2022-11-28T02:30:59.887Z,62.23
2022-11-28T02:33:26.749Z,61.70
2022-11-28T02:36:04.038Z,62.30
2022-11-28T02:38:45.963Z,62.29
2022-11-28T02:41:35.127Z,62.62
2022-11-28T02:44:16.615Z,62.46
2022-11-28T02:47:09.974Z,62.60
2022-11-28T02:50:04.976Z,62.29
2022-11-28T02:52:38.793Z,63.12
2022-11-28T02:55:07.027Z,63.30
2022-11-28T02:57:42.217Z,63.67
2022-11-28T03:00:32.623Z,63.45
2022-11-28T03:03:09.891Z,63.79
2022-11-28T03:05:48.056Z,63.81
2022-11-28T03:08:25.212Z,63.61
2022-11-28T03:11:18.248Z,64.48
2022-11-28T03:13:57.716Z,64.92
2022-11-28T03:16:41.302Z,65.14
2022-11-28T03:19:33.532Z,64.96
2022-11-28T03:22:30.903Z,64.67
2022-11-28T03:25:10.615Z,64.82
2022-11-28T03:28:03.723Z,64.88
2022-11-28T03:30:44.767Z,65.20
2022-11-28T03:33:14.422Z,65.37
2022-11-28T03:35:49.275Z,65.86
2022-11-28T03:38:31.999Z,66.02
2022-11-28T03:41:03.260Z,65.84
2022-11-28T03:43:36.621Z,66.06
2022-11-28T03:46:09.273Z,65.39
2022-11-28T03:48:42.255Z,65.46
2022-11-28T03:51:29.013Z,65.77
2022-11-28T03:54:04.889Z,65.63
2022-11-28T03:56:51.991Z,65.31
2022-11-28T03:59:31.419Z,65.59
2022-11-28T04:02:08.137Z,65.41
2022-11-28T04:05:00.081Z,65.79
2022-11-28T04:07:47.925Z,65.79
2022-11-28T04:10:26.778Z,65.59
2022-11-28T04:13:06.247Z,65.42
2022-11-28T04:15:54.836Z,65.49
2022-11-28T04:18:30.804Z,65.14
2022-11-28T04:21:35.322Z,65.73
2022-11-28T04:24:06.116Z,65.47
2022-11-28T04:26:36.195Z,65.52
2022-11-28T04:29:10.622Z,65.59
2022-11-28T04:31:40.642Z,65.36
2022-11-28T04:34:11.595Z,64.88
2022-11-28T04:36:41.276Z,65.14
2022-11-28T04:39:14.793Z,65.75
2022-11-28T04:41:57.247Z,66.14
2022-11-28T04:44:45.886Z,66.59
2022-11-28T04:47:13.040Z,66.75
2022-11-28T04:49:40.627Z,66.92
2022-11-28T04:52:30.653Z,66.98
2022-11-28T04:55:14.325Z,67.04
2022-11-28T04:57:45.690Z,66.60
2022-11-28T05:00:18.147Z,65.97
2022-11-28T05:02:50.203Z,65.14
2022-11-28T05:05:20.735Z,65.48
2022-11-28T05:07:47.801Z,66.07
2022-11-28T05:10:16.634Z,65.80
2022-11-28T05:12:43.595Z,64.97
2022-11-28T05:15:10.991Z,64.82
2022-11-28T05:17:42.179Z,65.33
2022-11-28T05:20:10.262Z,65.66
2022-11-28T05:22:37.327Z,65.73
2022-11-28T05:25:04.619Z,65.70
2022-11-28T05:27:31.566Z,66.16
2022-11-28T05:29:58.680Z,66.14
2022-11-28T05:32:25.734Z,66.09
2022-11-28T05:34:52.774Z,66.10
2022-11-28T05:37:19.910Z,66.26
2022-11-28T05:39:46.817Z,66.14
2022-11-28T05:42:13.796Z,66.05
2022-11-28T05:44:41.010Z,66.03
2022-11-28T05:47:08.003Z,65.89
2022-11-28T05:49:35.195Z,65.59
2022-11-28T05:52:02.055Z,65.25
2022-11-28T05:54:30.731Z,65.41
2022-11-28T05:56:57.791Z,65.03
2022-11-28T05:59:24.888Z,63.73
2022-11-28T06:01:52.095Z,63.95
2022-11-28T06:04:19.335Z,64.01
2022-11-28T06:06:46.406Z,63.95
2022-11-28T06:09:14.234Z,63.98
2022-11-28T06:11:41.232Z,64.40
2022-11-28T06:14:08.371Z,64.56
2022-11-28T06:16:35.670Z,64.01
2022-11-28T06:19:05.372Z,64.12
2022-11-28T06:21:33.250Z,63.89
2022-11-28T06:24:00.688Z,64.42
2022-11-28T06:26:29.443Z,64.22
2022-11-28T06:28:57.140Z,64.17
2022-11-28T06:31:28.465Z,64.50
2022-11-28T06:33:56.371Z,64.33
2022-11-28T06:36:24.057Z,62.90
2022-11-28T06:38:51.023Z,62.80
2022-11-28T06:41:20.753Z,63.63
2022-11-28T06:43:47.782Z,63.33
2022-11-28T06:46:19.023Z,64.00
2022-11-28T06:48:47.801Z,63.74
2022-11-28T06:51:15.801Z,63.71
2022-11-28T06:53:43.389Z,64.48
2022-11-28T06:56:16.795Z,64.86
2022-11-28T06:58:44.832Z,64.92
2022-11-28T07:01:14.748Z,64.97
2022-11-28T07:03:42.551Z,64.80
2022-11-28T07:06:10.002Z,64.49
2022-11-28T07:08:38.199Z,64.60
2022-11-28T07:11:11.648Z,64.49
2022-11-28T07:13:40.326Z,63.92
2022-11-28T07:16:08.687Z,63.73
2022-11-28T07:18:35.802Z,63.93
2022-11-28T07:21:02.942Z,63.91
2022-11-28T07:23:30.028Z,64.27
2022-11-28T07:26:01.789Z,64.14
2022-11-28T07:28:30.578Z,64.55
2022-11-28T07:31:18.959Z,64.22
2022-11-28T07:33:48.749Z,64.06
2022-11-28T07:36:21.901Z,63.63
2022-11-28T07:38:56.963Z,63.67
2022-11-28T07:41:26.765Z,64.33
2022-11-28T07:43:59.903Z,64.40
2022-11-28T07:46:28.481Z,64.69
2022-11-28T07:48:56.737Z,64.79
2022-11-28T07:51:30.409Z,64.65
2022-11-28T07:53:57.634Z,64.85
2022-11-28T07:56:39.493Z,64.96
2022-11-28T07:59:12.274Z,64.76
2022-11-28T08:01:39.604Z,64.08
2022-11-28T08:04:08.918Z,64.09
2022-11-28T08:06:39.444Z,63.97
2022-11-28T08:09:09.782Z,63.80
2022-11-28T08:11:36.791Z,63.85
2022-11-28T08:14:04.610Z,64.07
2022-11-28T08:16:32.496Z,64.31
2022-11-28T08:19:02.677Z,62.98
2022-11-28T08:21:35.601Z,63.25
2022-11-28T08:24:04.016Z,63.30
2022-11-28T08:26:33.139Z,63.64
2022-11-28T08:29:01.387Z,63.56
2022-11-28T08:31:33.758Z,64.16
2022-11-28T08:34:03.032Z,62.57
2022-11-28T08:36:30.234Z,63.15
2022-11-28T08:41:46.669Z,64.05
2022-11-28T08:44:13.858Z,64.07
2022-11-28T08:46:40.960Z,63.53
2022-11-28T08:49:08.023Z,64.43
2022-11-28T08:51:35.006Z,64.43
2022-11-28T08:54:01.968Z,64.33
2022-11-28T08:56:29.254Z,64.56
2022-11-28T08:58:56.319Z,64.44
2022-11-28T09:01:26.159Z,64.26
2022-11-28T09:03:54.691Z,64.60
2022-11-28T09:06:22.955Z,64.25
2022-11-28T09:08:51.204Z,63.88
2022-11-28T09:11:20.917Z,63.91
2022-11-28T09:13:48.218Z,64.11
2022-11-28T09:16:15.790Z,62.70
2022-11-28T09:18:43.090Z,63.16
2022-11-28T09:21:12.594Z,63.58
2022-11-28T09:23:41.405Z,63.82
2022-11-28T09:26:19.783Z,63.54
2022-11-28T09:28:46.990Z,63.31
2022-11-28T09:31:15.822Z,62.89
2022-11-28T09:33:43.804Z,63.37
2022-11-28T09:36:13.114Z,63.58
2022-11-28T09:38:40.294Z,63.09
2022-11-28T09:41:38.979Z,61.07
2022-11-28T09:44:14.743Z,61.39
2022-11-28T09:46:42.911Z,60.35
2022-11-28T09:49:22.651Z,61.15
2022-11-28T09:52:14.004Z,60.96
2022-11-28T09:54:49.103Z,61.30
2022-11-28T09:57:23.990Z,61.21
2022-11-28T09:59:50.946Z,61.33
2022-11-28T10:02:36.426Z,61.12
2022-11-28T10:05:19.338Z,61.97
2022-11-28T10:07:58.741Z,62.69
2022-11-28T10:10:31.341Z,63.04
2022-11-28T10:13:16.934Z,62.40
2022-11-28T10:16:10.319Z,62.81
2022-11-28T10:18:47.969Z,62.89
2022-11-28T10:21:42.293Z,63.09
2022-11-28T10:24:17.050Z,63.19
2022-11-28T10:26:47.254Z,62.89
2022-11-28T10:29:47.007Z,62.33
2022-11-28T10:32:21.121Z,62.00
2022-11-28T10:35:02.949Z,62.24
2022-11-28T10:37:32.081Z,62.16
2022-11-28T10:40:15.305Z,62.42
2022-11-28T10:42:46.073Z,61.54
2022-11-28T10:45:46.435Z,61.19
2022-11-28T10:48:39.688Z,61.45
2022-11-28T10:51:32.556Z,62.10
2022-11-28T10:54:14.739Z,62.24
2022-11-28T10:56:56.537Z,62.05
2022-11-28T10:59:31.955Z,61.60
2022-11-28T11:02:00.843Z,61.92
2022-11-28T11:04:28.522Z,62.28
2022-11-28T11:07:20.965Z,62.41
2022-11-28T11:09:51.623Z,62.66
2022-11-28T11:12:30.823Z,62.03
2022-11-28T11:14:58.067Z,62.12
2022-11-28T11:17:31.374Z,61.62
2022-11-28T11:20:02.494Z,61.21
2022-11-28T11:22:32.086Z,61.55
2022-11-28T11:25:20.169Z,61.42
2022-11-28T11:28:01.930Z,61.54
2022-11-28T11:30:35.663Z,61.74
2022-11-28T11:33:05.932Z,61.50
2022-11-28T11:35:48.509Z,61.68
2022-11-28T11:38:21.256Z,60.77
2022-11-28T11:40:49.774Z,61.60
2022-11-28T11:43:37.028Z,61.53
2022-11-28T11:46:08.408Z,61.79
2022-11-28T11:48:39.183Z,61.94
2022-11-28T11:51:08.602Z,62.23
2022-11-28T11:53:35.600Z,62.03
2022-11-28T11:56:03.885Z,62.08
2022-11-28T11:58:39.528Z,62.36
2022-11-28T12:01:08.143Z,62.36
2022-11-28T12:03:55.358Z,62.28
2022-11-28T12:06:28.544Z,61.92
2022-11-28T12:09:23.093Z,61.98
2022-11-28T12:11:56.704Z,62.33
2022-11-28T12:14:36.759Z,61.97
2022-11-28T12:17:47.377Z,62.19
2022-11-28T12:20:11.550Z,62.73
2022-11-28T12:23:14.340Z,62.67
2022-11-28T12:25:50.997Z,62.68
2022-11-28T12:28:29.975Z,62.63
2022-11-28T12:31:17.443Z,62.87
2022-11-28T12:34:16.849Z,62.78
2022-11-28T12:37:19.017Z,62.75
2022-11-28T12:39:46.365Z,62.02
2022-11-28T12:42:27.027Z,62.32
2022-11-28T12:45:08.986Z,62.58
2022-11-28T12:47:54.062Z,62.85
2022-11-28T12:50:30.294Z,62.85
2022-11-28T12:53:28.559Z,62.98
2022-11-28T12:56:13.976Z,63.08
2022-11-28T12:58:57.417Z,63.25
2022-11-28T13:01:43.221Z,63.01
2022-11-28T13:04:31.727Z,63.15
2022-11-28T13:07:16.789Z,63.49
2022-11-28T13:09:55.374Z,63.42
2022-11-28T13:12:41.194Z,63.43
2022-11-28T13:15:47.302Z,63.47
2022-11-28T13:18:20.345Z,63.20
2022-11-28T13:21:14.622Z,63.42
2022-11-28T13:23:56.379Z,63.62
2022-11-28T13:26:35.393Z,63.53
2022-11-28T13:29:13.974Z,64.14
2022-11-28T13:32:24.305Z,64.05
2022-11-28T13:34:52.032Z,64.14
2022-11-28T13:40:31.759Z,64.00
2022-11-28T13:43:14.007Z,63.89
2022-11-28T13:45:43.540Z,63.85
2022-11-28T13:51:31.577Z,63.88
2022-11-28T13:54:17.736Z,63.80
2022-11-28T13:57:21.463Z,63.86
2022-11-28T13:59:54.503Z,63.63
2022-11-28T14:02:42.193Z,63.42
2022-11-28T14:05:30.794Z,63.82
2022-11-28T14:07:58.507Z,63.95
2022-11-28T14:10:28.616Z,63.81
2022-11-28T14:13:07.806Z,63.35
2022-11-28T14:16:05.595Z,63.35
2022-11-28T14:19:00.339Z,63.47
2022-11-28T14:21:30.610Z,63.36
2022-11-28T14:24:19.427Z,63.52
2022-11-28T14:26:47.465Z,63.37
2022-11-28T14:29:23.562Z,63.40
2022-11-28T14:32:21.707Z,63.33
2022-11-28T14:34:48.883Z,63.55
2022-11-28T14:37:21.961Z,63.10
2022-11-28T14:39:50.388Z,62.86
2022-11-28T14:42:43.916Z,62.72
2022-11-28T14:45:41.622Z,63.44
2022-11-28T14:48:17.030Z,63.04
2022-11-28T14:50:59.307Z,63.65
2022-11-28T14:53:34.521Z,62.82
2022-11-28T14:56:13.622Z,62.93
2022-11-28T14:58:47.413Z,63.10
2022-11-28T15:01:20.981Z,62.91
2022-11-28T15:04:05.144Z,62.89
2022-11-28T15:06:40.110Z,63.08
2022-11-28T15:09:38.449Z,63.44
2022-11-28T15:12:17.669Z,63.85
2022-11-28T15:14:50.986Z,63.74
2022-11-28T15:17:21.656Z,63.76
2022-11-28T15:19:50.074Z,64.05
2022-11-28T15:22:46.897Z,64.16
2022-11-28T15:25:23.449Z,64.47
2022-11-28T15:27:51.443Z,64.54
2022-11-28T15:30:26.826Z,64.70
2022-11-28T15:33:00.035Z,64.86
2022-11-28T15:35:28.299Z,64.53
2022-11-28T15:37:58.169Z,64.87
2022-11-28T15:40:32.818Z,65.17
2022-11-28T15:43:06.637Z,65.45
2022-11-28T15:45:37.058Z,65.44
2022-11-28T15:48:06.296Z,65.53
2022-11-28T15:50:34.425Z,65.48
2022-11-28T15:53:03.010Z,65.62
2022-11-28T15:55:33.181Z,65.41
2022-11-28T15:58:15.248Z,65.63
2022-11-28T16:00:44.897Z,65.56
2022-11-28T16:03:22.773Z,65.39
2022-11-28T16:05:52.033Z,65.65
2022-11-28T16:08:29.048Z,65.89
2022-11-28T16:10:56.989Z,65.76
2022-11-28T16:13:25.048Z,65.61
2022-11-28T16:15:56.229Z,65.49
2022-11-28T16:18:25.506Z,65.37
2022-11-28T16:20:52.982Z,65.17
2022-11-28T16:23:30.404Z,65.71
2022-11-28T16:26:01.512Z,65.48
2022-11-28T16:28:37.076Z,65.38
2022-11-28T16:31:19.263Z,65.64
2022-11-28T16:33:47.923Z,65.83
2022-11-28T16:36:34.020Z,65.83
2022-11-28T16:39:15.498Z,65.70
2022-11-28T16:42:08.001Z,65.62
2022-11-28T16:44:35.015Z,65.26
2022-11-28T16:47:02.504Z,65.18
2022-11-28T16:49:33.313Z,65.62
2022-11-28T16:52:26.373Z,65.42
2022-11-28T16:54:57.605Z,65.71
2022-11-28T16:57:28.826Z,65.49
2022-11-28T16:59:59.842Z,65.18
2022-11-28T17:02:27.116Z,65.32
2022-11-28T17:04:54.611Z,65.06
2022-11-28T17:07:23.706Z,65.11
2022-11-28T17:09:51.506Z,64.98
2022-11-28T17:12:34.333Z,64.94
2022-11-28T17:15:01.379Z,65.31
2022-11-28T17:17:30.740Z,64.97
2022-11-28T17:19:57.849Z,65.02
2022-11-28T17:22:38.920Z,65.02
2022-11-28T17:25:16.624Z,63.99
2022-11-28T17:27:44.459Z,64.40
2022-11-28T17:30:16.132Z,65.23
2022-11-28T17:32:43.879Z,64.94
2022-11-28T17:35:14.305Z,65.14
2022-11-28T17:37:41.306Z,65.06
2022-11-28T17:40:27.850Z,65.23
2022-11-28T17:42:54.752Z,65.49
2022-11-28T17:45:22.414Z,65.79
2022-11-28T17:47:49.718Z,65.88
2022-11-28T17:50:17.860Z,65.95
2022-11-28T17:52:44.953Z,65.80
2022-11-28T17:55:12.374Z,65.70
2022-11-28T17:57:39.490Z,66.04
2022-11-28T18:00:09.510Z,65.85
2022-11-28T18:02:43.892Z,65.89
2022-11-28T18:05:11.381Z,65.83
2022-11-28T18:07:40.047Z,65.93
2022-11-28T18:10:11.312Z,65.64
2022-11-28T18:12:39.652Z,65.71
2022-11-28T18:15:08.287Z,65.25
2022-11-28T18:17:35.673Z,65.35
2022-11-28T18:20:03.841Z,65.87
2022-11-28T18:22:30.979Z,66.18
2022-11-28T18:24:58.124Z,65.96
2022-11-28T18:27:25.217Z,66.29
2022-11-28T18:29:52.691Z,65.89
2022-11-28T18:32:19.912Z,65.77
2022-11-28T18:34:47.566Z,65.23
2022-11-28T18:37:14.731Z,65.37
2022-11-28T18:39:42.477Z,65.39
2022-11-28T18:42:10.600Z,65.16
2022-11-28T18:44:37.789Z,65.22
2022-11-28T18:47:04.881Z,65.75
2022-11-28T18:49:32.347Z,65.34
2022-11-28T18:51:59.379Z,65.56
2022-11-28T18:54:31.205Z,65.35
2022-11-28T18:56:58.241Z,65.65
2022-11-28T18:59:25.907Z,65.74
2022-11-28T19:01:52.983Z,65.69
2022-11-28T19:04:20.100Z,65.50
2022-11-28T19:06:48.821Z,66.02
2022-11-28T19:09:17.217Z,66.09
2022-11-28T19:11:45.030Z,66.18
2022-11-28T19:14:17.804Z,66.06
2022-11-28T19:16:45.879Z,66.14
2022-11-28T19:19:21.208Z,66.28
2022-11-28T19:21:49.049Z,66.24
2022-11-28T19:24:16.167Z,66.40
2022-11-28T19:26:43.235Z,66.54
2022-11-28T19:29:10.278Z,66.28
2022-11-28T19:31:39.703Z,66.42
2022-11-28T19:34:10.625Z,66.50
2022-11-28T19:36:41.172Z,65.69
2022-11-28T19:39:13.313Z,65.28
2022-11-28T19:41:40.364Z,65.10
2022-11-28T19:44:07.281Z,65.69
2022-11-28T19:46:35.987Z,65.73
2022-11-28T19:49:08.654Z,65.72
2022-11-28T19:51:35.690Z,65.45
2022-11-28T19:54:03.943Z,65.29
2022-11-28T19:56:33.105Z,65.74
2022-11-28T19:59:00.499Z,66.04
2022-11-28T20:01:28.583Z,66.20
2022-11-28T20:03:55.739Z,65.97
2022-11-28T20:06:29.143Z,66.03
2022-11-28T20:09:01.087Z,65.70
2022-11-28T20:11:34.554Z,65.91
2022-11-28T20:14:07.401Z,66.29
2022-11-28T20:16:35.794Z,66.44
2022-11-28T20:19:05.176Z,66.67
2022-11-28T20:21:34.442Z,66.78
2022-11-28T20:24:05.172Z,66.75
2022-11-28T20:26:37.248Z,67.07
2022-11-28T20:29:05.200Z,67.00
2022-11-28T20:31:36.709Z,66.75
2022-11-28T20:34:04.893Z,66.41
2022-11-28T20:36:33.226Z,66.89
2022-11-28T20:39:01.247Z,66.97
2022-11-28T20:41:29.310Z,66.87
2022-11-28T20:43:58.742Z,66.84
2022-11-28T20:46:30.817Z,66.82
2022-11-28T20:49:00.039Z,67.01
2022-11-28T20:51:29.389Z,66.92
2022-11-28T20:53:58.320Z,66.60
2022-11-28T20:56:29.907Z,66.67
2022-11-28T20:59:01.735Z,66.65
2022-11-28T21:01:35.881Z,67.29
2022-11-28T21:04:05.109Z,67.58
2022-11-28T21:06:33.043Z,67.44
2022-11-28T21:09:00.155Z,66.89
2022-11-28T21:14:15.623Z,66.53
2022-11-28T21:16:43.847Z,66.07
2022-11-28T21:19:11.598Z,66.04
2022-11-28T21:21:40.606Z,66.00
2022-11-28T21:24:11.550Z,65.67
2022-11-28T21:26:43.181Z,65.87
2022-11-28T21:29:13.052Z,66.04
2022-11-28T21:31:43.544Z,66.34
2022-11-28T21:34:16.938Z,66.49
2022-11-28T21:36:44.763Z,66.28
2022-11-28T21:39:20.213Z,66.79
2022-11-28T21:41:47.964Z,66.80
2022-11-28T21:44:15.032Z,66.93
2022-11-28T21:46:42.723Z,66.68
2022-11-28T21:49:09.848Z,66.07
2022-11-28T21:51:39.542Z,65.97
2022-11-28T21:54:06.707Z,66.04
2022-11-28T21:56:34.095Z,66.00
2022-11-28T21:59:01.118Z,66.13
2022-11-28T22:01:29.170Z,66.22
2022-11-28T22:04:02.168Z,66.15
2022-11-28T22:06:34.049Z,65.77
2022-11-28T22:09:08.612Z,65.23
2022-11-28T22:11:36.070Z,65.48
2022-11-28T22:14:03.720Z,65.90
2022-11-28T22:16:31.215Z,65.46
2022-11-28T22:19:00.203Z,65.21
2022-11-28T22:21:51.410Z,65.78
2022-11-28T22:24:15.345Z,66.34
2022-11-28T22:26:43.871Z,66.20
2022-11-28T22:29:11.803Z,66.22
2022-11-28T22:31:38.911Z,66.17
2022-11-28T22:34:06.021Z,66.01
2022-11-28T22:36:34.470Z,66.18
2022-11-28T22:39:03.901Z,66.22
2022-11-28T22:41:31.305Z,66.47
2022-11-28T22:44:01.114Z,66.61
2022-11-28T22:46:30.530Z,66.66
2022-11-28T22:49:02.689Z,66.53
2022-11-28T22:51:31.086Z,66.60
2022-11-28T22:54:00.556Z,66.97
2022-11-28T22:56:30.829Z,67.29
2022-11-28T22:58:59.582Z,67.42
2022-11-28T23:01:30.413Z,67.26
2022-11-28T23:03:57.953Z,67.08
2022-11-28T23:06:33.606Z,67.15
2022-11-28T23:09:04.258Z,67.20
2022-11-28T23:11:33.548Z,66.99
2022-11-28T23:14:01.896Z,66.67
2022-11-28T23:16:34.815Z,66.95
2022-11-28T23:19:08.145Z,66.80
2022-11-28T23:21:37.909Z,66.96
2022-11-28T23:24:06.948Z,67.03
2022-11-28T23:26:35.129Z,67.05
2022-11-28T23:29:04.839Z,67.08
2022-11-28T23:31:36.991Z,66.93
2022-11-28T23:34:05.603Z,66.86
2022-11-28T23:36:41.862Z,66.56
2022-11-28T23:39:16.776Z,66.42
2022-11-28T23:41:44.156Z,66.80
2022-11-28T23:44:12.842Z,66.84
2022-11-28T23:46:40.041Z,67.14
2022-11-28T23:49:07.782Z,67.04
2022-11-28T23:51:34.842Z,66.92
2022-11-28T23:54:01.954Z,66.79
2022-11-28T23:56:31.567Z,67.17
2022-11-28T23:59:02.371Z,67.02
